createdAt,value
2018-04-11T00:00:07.397Z,97402.66
2018-04-11T00:02:34.879Z,97398.86
2018-04-11T00:05:02.374Z,97400.30
2018-04-11T00:07:29.856Z,97400.02
2018-04-11T00:09:57.343Z,97403.23
2018-04-11T00:12:24.822Z,97397.18
2018-04-11T00:14:52.309Z,97399.42
2018-04-11T00:17:19.804Z,97395.95
2018-04-11T00:19:47.291Z,97397.91
2018-04-11T00:22:14.773Z,97400.44
2018-04-11T00:24:42.249Z,97390.79
2018-04-11T00:27:09.800Z,97389.75
2018-04-11T00:29:37.267Z,97398.02
2018-04-11T00:32:04.752Z,97398.09
2018-04-11T00:34:32.260Z,97404.16
2018-04-11T00:36:59.749Z,97401.58
2018-04-11T00:39:27.221Z,97396.38
2018-04-11T00:41:54.844Z,97399.16
2018-04-11T00:44:22.341Z,97398.31
2018-04-11T00:46:49.821Z,97397.67
2018-04-11T00:49:17.821Z,97394.44
2018-04-11T00:51:45.310Z,97404.84
2018-04-11T00:54:12.815Z,97402.53
2018-04-11T00:56:40.324Z,97402.45
2018-04-11T00:59:07.806Z,97402.37
2018-04-11T01:01:35.316Z,97405.09
2018-04-11T01:04:02.813Z,97406.39
2018-04-11T01:06:30.357Z,97404.22
2018-04-11T01:08:57.851Z,97403.55
2018-04-11T01:11:25.446Z,97403.86
2018-04-11T01:13:53.070Z,97400.75
2018-04-11T01:16:20.615Z,97389.20
2018-04-11T01:18:48.097Z,97400.09
2018-04-11T01:21:15.607Z,97397.31
2018-04-11T01:23:43.110Z,97397.82
2018-04-11T01:26:10.568Z,97389.06
2018-04-11T01:28:38.075Z,97388.90
2018-04-11T01:31:05.585Z,97392.89
2018-04-11T01:33:33.058Z,97383.34
2018-04-11T01:36:00.590Z,97386.94
2018-04-11T01:38:28.108Z,97384.86
2018-04-11T01:40:55.571Z,97385.80
2018-04-11T01:43:23.045Z,97381.47
2018-04-11T01:45:50.537Z,97376.03
2018-04-11T01:48:18.031Z,97380.91
2018-04-11T01:50:46.349Z,97384.28
2018-04-11T01:53:13.834Z,97385.84
2018-04-11T01:55:41.289Z,97385.08
2018-04-11T01:58:08.812Z,97377.31
2018-04-11T02:00:36.309Z,97382.46
2018-04-11T02:03:03.818Z,97386.19
2018-04-11T02:05:31.293Z,97380.09
2018-04-11T02:07:58.785Z,97383.58
2018-04-11T02:10:26.273Z,97377.03
2018-04-11T02:12:53.747Z,97380.31
2018-04-11T02:15:21.316Z,97383.45
2018-04-11T02:17:48.825Z,97384.97
2018-04-11T02:20:16.339Z,97385.08
2018-04-11T02:22:43.820Z,97389.15
2018-04-11T02:25:11.303Z,97390.39
2018-04-11T02:27:38.830Z,97382.67
2018-04-11T02:30:06.413Z,97393.77
2018-04-11T02:32:33.899Z,97391.31
2018-04-11T02:35:01.422Z,97392.30
2018-04-11T02:37:28.927Z,97390.05
2018-04-11T02:39:56.428Z,97390.97
2018-04-11T02:42:23.957Z,97393.72
2018-04-11T02:44:51.489Z,97400.64
2018-04-11T02:47:18.955Z,97395.63
2018-04-11T02:49:46.438Z,97392.33
2018-04-11T02:52:13.934Z,97398.52
2018-04-11T02:54:41.453Z,97403.34
2018-04-11T02:57:08.967Z,97402.55
2018-04-11T02:59:36.461Z,97405.47
2018-04-11T03:02:03.930Z,97401.36
2018-04-11T03:04:31.439Z,97407.31
2018-04-11T03:06:58.945Z,97399.45
2018-04-11T03:09:26.488Z,97401.38
2018-04-11T03:11:53.984Z,97401.78
2018-04-11T03:14:21.525Z,97395.20
2018-04-11T03:16:49.011Z,97397.67
2018-04-11T03:19:16.482Z,97404.34
2018-04-11T03:21:44.048Z,97404.11
2018-04-11T03:24:11.589Z,97399.48
2018-04-11T03:26:39.097Z,97404.28
2018-04-11T03:29:06.614Z,97402.91
2018-04-11T03:31:34.251Z,97403.34
2018-04-11T03:34:01.757Z,97401.11
2018-04-11T03:36:29.275Z,97395.95
2018-04-11T03:38:56.805Z,97400.65
2018-04-11T03:41:24.343Z,97399.44
2018-04-11T03:43:52.089Z,97403.08
2018-04-11T03:46:19.681Z,97395.16
2018-04-11T03:48:47.201Z,97400.67
2018-04-11T03:51:14.694Z,97396.95
2018-04-11T03:53:42.188Z,97397.48
2018-04-11T03:56:09.725Z,97400.48
2018-04-11T03:58:37.244Z,97404.15
2018-04-11T04:01:04.747Z,97408.23
2018-04-11T04:03:32.260Z,97410.86
2018-04-11T04:05:59.739Z,97408.31
2018-04-11T04:08:27.232Z,97408.97
2018-04-11T04:10:54.741Z,97408.19
2018-04-11T04:16:34.382Z,97424.27
2018-04-11T04:19:13.834Z,97426.08
2018-04-11T04:21:41.403Z,97426.86
2018-04-11T04:24:08.913Z,97427.29
2018-04-11T04:26:36.450Z,97428.14
2018-04-11T04:29:03.945Z,97431.94
2018-04-11T04:31:31.471Z,97430.02
2018-04-11T04:33:59.009Z,97428.72
2018-04-11T04:36:26.524Z,97431.68
2018-04-11T04:38:54.068Z,97435.73
2018-04-11T04:41:21.609Z,97434.88
2018-04-11T04:43:49.124Z,97439.70
2018-04-11T04:46:16.633Z,97441.34
2018-04-11T04:48:44.165Z,97442.98
2018-04-11T04:51:11.697Z,97445.41
2018-04-11T04:53:39.214Z,97446.34
2018-04-11T04:56:06.764Z,97440.84
2018-04-11T04:58:34.273Z,97437.61
2018-04-11T05:01:01.792Z,97442.44
2018-04-11T05:03:29.322Z,97443.16
2018-04-11T05:05:56.864Z,97440.48
2018-04-11T05:08:24.357Z,97437.47
2018-04-11T05:10:51.854Z,97444.38
2018-04-11T05:13:19.502Z,97443.81
2018-04-11T05:15:46.999Z,97448.37
2018-04-11T05:18:14.496Z,97452.56
2018-04-11T05:20:42.069Z,97450.08
2018-04-11T05:23:09.570Z,97447.03
2018-04-11T05:25:37.072Z,97453.89
2018-04-11T05:28:04.572Z,97455.80
2018-04-11T05:30:32.066Z,97454.48
2018-04-11T05:32:59.612Z,97458.86
2018-04-11T05:35:27.109Z,97457.88
2018-04-11T05:37:54.580Z,97457.86
2018-04-11T05:40:22.084Z,97456.97
2018-04-11T05:42:49.605Z,97458.16
2018-04-11T05:45:17.126Z,97461.96
2018-04-11T05:47:44.686Z,97455.80
2018-04-11T05:50:12.259Z,97455.46
2018-04-11T05:52:39.786Z,97462.65
2018-04-11T05:55:07.300Z,97463.23
2018-04-11T05:57:34.823Z,97467.44
2018-04-11T06:00:02.301Z,97473.05
2018-04-11T06:02:29.816Z,97470.89
2018-04-11T06:04:57.320Z,97467.02
2018-04-11T06:07:24.801Z,97470.84
2018-04-11T06:09:52.276Z,97465.47
2018-04-11T06:12:19.773Z,97456.17
2018-04-11T06:14:47.345Z,97464.21
2018-04-11T06:17:15.005Z,97467.89
2018-04-11T06:19:42.496Z,97474.10
2018-04-11T06:22:09.972Z,97472.88
2018-04-11T06:24:37.473Z,97466.44
2018-04-11T06:27:05.120Z,97468.50
2018-04-11T06:29:32.593Z,97468.13
2018-04-11T06:32:00.125Z,97469.03
2018-04-11T06:34:27.686Z,97466.09
2018-04-11T06:36:55.210Z,97464.58
2018-04-11T06:39:22.711Z,97463.83
2018-04-11T06:41:50.275Z,97456.35
2018-04-11T06:44:17.898Z,97465.74
2018-04-11T06:46:45.377Z,97464.37
2018-04-11T06:49:12.862Z,97457.84
2018-04-11T06:51:40.369Z,97452.95
2018-04-11T06:54:07.877Z,97457.26
2018-04-11T06:56:35.382Z,97451.62
2018-04-11T06:59:02.898Z,97448.95
2018-04-11T07:01:30.606Z,97449.04
2018-04-11T07:03:58.107Z,97451.23
2018-04-11T07:06:25.594Z,97455.47
2018-04-11T07:08:53.083Z,97458.88
2018-04-11T07:11:20.613Z,97458.23
2018-04-11T07:13:48.125Z,97458.71
2018-04-11T07:16:15.620Z,97449.58
2018-04-11T07:18:43.114Z,97450.59
2018-04-11T07:21:10.659Z,97450.46
2018-04-11T07:23:38.187Z,97452.41
2018-04-11T07:26:05.689Z,97449.22
2018-04-11T07:28:33.255Z,97447.61
2018-04-11T07:31:00.789Z,97444.65
2018-04-11T07:33:28.260Z,97438.26
2018-04-11T07:35:55.733Z,97442.16
2018-04-11T07:38:23.368Z,97441.66
2018-04-11T07:40:50.880Z,97446.09
2018-04-11T07:43:18.389Z,97440.47
2018-04-11T07:45:45.896Z,97436.02
2018-04-11T07:48:13.469Z,97439.33
2018-04-11T07:50:40.961Z,97428.52
2018-04-11T07:53:08.440Z,97432.52
2018-04-11T07:55:35.933Z,97444.31
2018-04-11T07:58:03.513Z,97447.77
2018-04-11T08:00:30.995Z,97443.36
2018-04-11T08:02:58.499Z,97443.48
2018-04-11T08:05:25.973Z,97447.81
2018-04-11T08:07:53.445Z,97448.66
2018-04-11T08:10:20.934Z,97452.98
2018-04-11T08:12:48.557Z,97451.81
2018-04-11T08:15:16.036Z,97453.13
2018-04-11T08:17:43.569Z,97449.12
2018-04-11T08:20:11.055Z,97448.61
2018-04-11T08:22:38.549Z,97437.94
2018-04-11T08:25:06.104Z,97430.95
2018-04-11T08:27:33.687Z,97432.20
2018-04-11T08:30:01.309Z,97426.03
2018-04-11T08:32:28.790Z,97426.36
2018-04-11T08:34:56.275Z,97424.37
2018-04-11T08:37:23.790Z,97423.66
2018-04-11T08:39:51.317Z,97420.37
2018-04-11T08:42:18.935Z,97425.13
2018-04-11T08:44:46.444Z,97421.33
2018-04-11T08:47:13.967Z,97417.56
2018-04-11T08:49:41.471Z,97426.55
2018-04-11T08:52:09.021Z,97415.92
2018-04-11T08:54:36.510Z,97421.80
2018-04-11T08:57:04.057Z,97415.22
2018-04-11T08:59:31.560Z,97416.38
2018-04-11T09:01:59.048Z,97414.19
2018-04-11T09:04:26.535Z,97407.67
2018-04-11T09:06:54.036Z,97416.58
2018-04-11T09:09:21.524Z,97419.05
2018-04-11T09:11:49.095Z,97420.98
2018-04-11T09:14:16.607Z,97417.02
2018-04-11T09:16:44.092Z,97415.63
2018-04-11T09:19:11.582Z,97417.09
2018-04-11T09:21:39.101Z,97409.66
2018-04-11T09:24:06.603Z,97410.43
2018-04-11T09:26:34.211Z,97409.13
2018-04-11T09:29:01.718Z,97404.80
2018-04-11T09:31:29.228Z,97402.09
2018-04-11T09:33:56.708Z,97399.86
2018-04-11T09:36:24.235Z,97396.20
2018-04-11T09:38:51.722Z,97391.38
2018-04-11T09:41:19.285Z,97388.21
2018-04-11T09:43:46.791Z,97388.69
2018-04-11T09:46:14.293Z,97384.34
2018-04-11T09:48:41.796Z,97385.28
2018-04-11T09:51:09.566Z,97378.58
2018-04-11T09:53:37.049Z,97385.22
2018-04-11T09:56:04.517Z,97387.13
2018-04-11T09:58:32.002Z,97381.34
2018-04-11T10:00:59.515Z,97374.07
2018-04-11T10:03:27.006Z,97372.80
2018-04-11T10:05:54.521Z,97373.88
2018-04-11T10:08:22.039Z,97374.05
2018-04-11T10:10:49.568Z,97372.70
2018-04-11T10:13:17.202Z,97368.09
2018-04-11T10:15:44.685Z,97371.36
2018-04-11T10:18:12.170Z,97372.69
2018-04-11T10:20:39.655Z,97365.14
2018-04-11T10:23:07.143Z,97357.70
2018-04-11T10:25:34.679Z,97354.05
2018-04-11T10:28:02.201Z,97346.53
2018-04-11T10:30:30.042Z,97347.43
2018-04-11T10:32:57.520Z,97348.56
2018-04-11T10:35:25.035Z,97350.59
2018-04-11T10:37:52.576Z,97349.13
2018-04-11T10:40:20.285Z,97350.38
2018-04-11T10:42:47.794Z,97347.19
2018-04-11T10:45:15.306Z,97341.79
2018-04-11T10:47:42.843Z,97347.78
2018-04-11T10:50:10.335Z,97337.94
2018-04-11T10:52:37.844Z,97343.09
2018-04-11T10:55:05.465Z,97336.09
2018-04-11T10:57:32.962Z,97339.49
2018-04-11T11:00:00.489Z,97338.34
2018-04-11T11:02:27.981Z,97338.20
2018-04-11T11:04:55.538Z,97326.97
2018-04-11T11:07:23.037Z,97324.92
2018-04-11T11:09:50.839Z,97324.38
2018-04-11T11:12:18.309Z,97321.64
2018-04-11T11:14:45.797Z,97322.95
2018-04-11T11:17:13.395Z,97311.06
2018-04-11T11:19:52.728Z,97302.16
2018-04-11T11:22:20.204Z,97307.79
2018-04-11T11:24:47.677Z,97296.89
2018-04-11T11:27:15.288Z,97293.24
2018-04-11T11:29:42.781Z,97291.55
2018-04-11T11:32:10.335Z,97285.59
2018-04-11T11:34:37.867Z,97289.58
2018-04-11T11:37:05.372Z,97278.07
2018-04-11T11:39:32.868Z,97273.67
2018-04-11T11:42:00.461Z,97268.71
2018-04-11T11:44:27.938Z,97267.34
2018-04-11T11:46:55.429Z,97270.69
2018-04-11T11:49:22.907Z,97267.81
2018-04-11T11:51:59.265Z,97262.95
2018-04-11T11:54:37.586Z,97268.91
2018-04-11T11:57:09.545Z,97261.41
2018-04-11T11:59:38.447Z,97259.86
2018-04-11T12:02:16.122Z,97251.04
2018-04-11T12:04:54.425Z,97247.78
2018-04-11T12:07:22.825Z,97244.91
2018-04-11T12:09:50.400Z,97237.70
2018-04-11T12:12:17.881Z,97240.09
2018-04-11T12:14:45.404Z,97239.94
2018-04-11T12:17:12.998Z,97235.84
2018-04-11T12:19:40.507Z,97236.43
2018-04-11T12:22:08.001Z,97229.28
2018-04-11T12:24:35.717Z,97238.08
2018-04-11T12:27:03.220Z,97231.98
2018-04-11T12:29:30.829Z,97231.42
2018-04-11T12:31:58.306Z,97227.72
2018-04-11T12:34:25.984Z,97222.18
2018-04-11T12:36:53.465Z,97223.66
2018-04-11T12:39:23.209Z,97228.23
2018-04-11T12:41:50.783Z,97223.20
2018-04-11T12:44:18.893Z,97221.39
2018-04-11T12:46:46.412Z,97207.07
2018-04-11T12:49:13.900Z,97205.50
2018-04-11T12:51:41.385Z,97203.58
2018-04-11T12:54:08.887Z,97204.09
2018-04-11T12:56:36.572Z,97191.34
2018-04-11T12:59:04.506Z,97197.74
2018-04-11T13:01:32.370Z,97202.47
2018-04-11T13:04:01.287Z,97202.82
2018-04-11T13:06:29.055Z,97208.73
2018-04-11T13:08:56.538Z,97202.77
2018-04-11T13:11:24.079Z,97199.31
2018-04-11T13:13:51.550Z,97197.17
2018-04-11T13:16:19.068Z,97193.20
2018-04-11T13:18:46.584Z,97183.75
2018-04-11T13:21:14.083Z,97170.53
2018-04-11T13:23:41.705Z,97172.27
2018-04-11T13:26:09.588Z,97164.05
2018-04-11T13:28:37.113Z,97161.17
2018-04-11T13:31:04.580Z,97159.06
2018-04-11T13:33:32.085Z,97146.69
2018-04-11T13:35:59.574Z,97146.55
2018-04-11T13:38:27.067Z,97143.58
2018-04-11T13:40:54.678Z,97152.45
2018-04-11T13:43:22.431Z,97144.61
2018-04-11T13:45:49.904Z,97148.00
2018-04-11T13:48:17.368Z,97147.42
2018-04-11T13:50:44.877Z,97135.30
2018-04-11T13:53:12.352Z,97131.50
2018-04-11T13:55:39.927Z,97130.64
2018-04-11T13:58:07.402Z,97129.88
2018-04-11T14:00:34.936Z,97128.22
2018-04-11T14:03:02.547Z,97137.09
2018-04-11T14:05:30.045Z,97133.16
2018-04-11T14:07:57.534Z,97127.23
2018-04-11T14:10:25.167Z,97121.06
2018-04-11T14:12:53.111Z,97117.09
2018-04-11T14:15:20.573Z,97122.08
2018-04-11T14:17:48.059Z,97115.68
2018-04-11T14:20:15.635Z,97117.27
2018-04-11T14:22:43.130Z,97120.93
2018-04-11T14:25:10.917Z,97117.27
2018-04-11T14:27:38.407Z,97111.59
2018-04-11T14:30:05.918Z,97108.39
2018-04-11T14:32:33.403Z,97099.52
2018-04-11T14:35:00.882Z,97099.91
2018-04-11T14:37:28.367Z,97097.19
2018-04-11T14:39:55.903Z,97097.42
2018-04-11T14:42:23.507Z,97087.66
2018-04-11T14:44:51.006Z,97085.95
2018-04-11T14:47:18.536Z,97090.48
2018-04-11T14:49:46.026Z,97090.13
2018-04-11T14:52:13.492Z,97101.47
2018-04-11T14:54:40.983Z,97101.48
2018-04-11T14:57:08.463Z,97093.11
2018-04-11T14:59:35.951Z,97098.92
2018-04-11T15:02:03.452Z,97090.02
2018-04-11T15:04:31.090Z,97092.62
2018-04-11T15:06:58.580Z,97082.42
2018-04-11T15:09:26.099Z,97077.77
2018-04-11T15:11:53.696Z,97073.16
2018-04-11T15:14:21.205Z,97064.68
2018-04-11T15:16:48.685Z,97069.11
2018-04-11T15:19:16.225Z,97065.78
2018-04-11T15:21:43.728Z,97068.17
2018-04-11T15:24:11.312Z,97073.53
2018-04-11T15:26:38.796Z,97073.45
2018-04-11T15:29:06.290Z,97069.61
2018-04-11T15:31:33.764Z,97077.98
2018-04-11T15:34:01.298Z,97078.16
2018-04-11T15:36:28.791Z,97075.82
2018-04-11T15:38:56.305Z,97074.50
2018-04-11T15:41:23.795Z,97073.44
2018-04-11T15:43:51.271Z,97073.96
2018-04-11T15:46:30.594Z,97071.72
2018-04-11T15:48:58.063Z,97069.17
2018-04-11T15:51:25.768Z,97057.17
2018-04-11T15:53:53.236Z,97062.72
2018-04-11T15:56:20.785Z,97055.77
2018-04-11T15:58:48.220Z,97055.38
2018-04-11T16:01:15.697Z,97066.19
2018-04-11T16:03:43.179Z,97054.43
2018-04-11T16:06:10.684Z,97055.77
2018-04-11T16:08:38.186Z,97055.88
2018-04-11T16:11:05.673Z,97051.90
2018-04-11T16:13:33.194Z,97044.76
2018-04-11T16:16:00.712Z,97047.33
2018-04-11T16:18:28.195Z,97048.75
2018-04-11T16:20:55.670Z,97054.33
2018-04-11T16:23:23.168Z,97048.30
2018-04-11T16:25:50.639Z,97050.41
2018-04-11T16:28:18.129Z,97045.38
2018-04-11T16:30:45.776Z,97040.66
2018-04-11T16:33:13.270Z,97045.95
2018-04-11T16:35:40.753Z,97041.47
2018-04-11T16:38:08.223Z,97041.31
2018-04-11T16:40:35.984Z,97039.13
2018-04-11T16:43:03.482Z,97033.91
2018-04-11T16:45:31.025Z,97032.43
2018-04-11T16:47:58.508Z,97033.81
2018-04-11T16:50:25.993Z,97029.16
2018-04-11T16:52:53.501Z,97025.74
2018-04-11T16:55:21.000Z,97035.84
2018-04-11T16:57:48.520Z,97037.34
2018-04-11T17:00:16.079Z,97028.42
2018-04-11T17:02:43.573Z,97032.50
2018-04-11T17:05:11.079Z,97039.29
2018-04-11T17:07:38.596Z,97036.70
2018-04-11T17:10:06.090Z,97036.39
2018-04-11T17:12:39.495Z,97031.90
2018-04-11T17:15:16.618Z,97030.47
2018-04-11T17:17:44.117Z,97033.02
2018-04-11T17:20:11.642Z,97031.00
2018-04-11T17:22:57.361Z,97034.77
2018-04-11T17:25:44.606Z,97034.73
2018-04-11T17:28:26.070Z,97030.12
2018-04-11T17:31:04.304Z,97020.80
2018-04-11T17:33:34.048Z,97023.14
2018-04-11T17:36:06.802Z,97024.44
2018-04-11T17:38:39.670Z,97017.47
2018-04-11T17:41:07.362Z,97014.93
2018-04-11T17:43:46.086Z,97016.25
2018-04-11T17:46:13.585Z,97016.28
2018-04-11T17:48:48.200Z,97014.41
2018-04-11T17:51:16.312Z,97015.25
2018-04-11T17:53:46.784Z,97011.20
2018-04-11T17:56:15.769Z,97017.81
2018-04-11T17:58:46.802Z,97009.41
2018-04-11T18:01:14.745Z,97015.08
2018-04-11T18:03:45.235Z,97011.44
2018-04-11T18:06:13.164Z,97011.02
2018-04-11T18:08:47.332Z,97009.45
2018-04-11T18:11:14.799Z,97009.48
2018-04-11T18:13:42.340Z,97006.59
2018-04-11T18:16:10.108Z,97006.27
2018-04-11T18:18:37.799Z,97006.80
2018-04-11T18:21:05.271Z,97003.52
2018-04-11T18:23:32.776Z,97005.42
2018-04-11T18:26:00.491Z,97009.41
2018-04-11T18:28:27.973Z,97006.72
2018-04-11T18:30:55.721Z,97005.80
2018-04-11T18:33:33.185Z,97007.05
2018-04-11T18:36:00.689Z,96997.94
2018-04-11T18:38:28.225Z,97005.59
2018-04-11T18:40:55.849Z,97008.44
2018-04-11T18:43:23.347Z,97006.80
2018-04-11T18:45:51.056Z,97004.98
2018-04-11T18:48:18.665Z,97004.86
2018-04-11T18:50:46.303Z,97001.48
2018-04-11T18:53:13.803Z,97002.47
2018-04-11T18:55:41.326Z,97002.11
2018-04-11T18:58:08.825Z,97000.27
2018-04-11T19:00:36.372Z,96999.47
2018-04-11T19:03:03.910Z,96997.81
2018-04-11T19:05:31.658Z,96999.38
2018-04-11T19:07:59.566Z,96998.91
2018-04-11T19:10:29.215Z,97000.41
2018-04-11T19:12:56.750Z,96990.36
2018-04-11T19:15:24.289Z,96990.89
2018-04-11T19:17:51.806Z,96985.04
2018-04-11T19:20:19.341Z,96991.25
2018-04-11T19:22:46.855Z,96987.52
2018-04-11T19:25:40.716Z,96984.45
2018-04-11T19:28:09.725Z,96990.09
2018-04-11T19:30:38.006Z,96978.77
2018-04-11T19:33:06.629Z,96970.15
2018-04-11T19:35:35.325Z,96974.00
2018-04-11T19:38:02.876Z,96964.09
2018-04-11T19:40:30.387Z,96968.84
2018-04-11T19:42:57.924Z,96963.05
2018-04-11T19:45:25.575Z,96956.79
2018-04-11T19:47:54.019Z,96963.16
2018-04-11T19:50:21.683Z,96957.83
2018-04-11T19:52:52.089Z,96952.55
2018-04-11T19:55:38.657Z,96954.28
2018-04-11T19:58:16.684Z,96954.09
2018-04-11T20:00:48.914Z,96951.23
2018-04-11T20:03:23.905Z,96943.97
2018-04-11T20:06:06.010Z,96932.85
2018-04-11T20:11:20.760Z,96930.66
2018-04-11T20:16:31.480Z,96929.90
2018-04-11T20:19:09.573Z,96930.92
2018-04-11T20:21:37.179Z,96923.15
2018-04-11T20:24:04.877Z,96920.79
2018-04-11T20:26:48.059Z,96922.92
2018-04-11T20:29:26.047Z,96919.70
2018-04-11T20:31:54.597Z,96919.44
2018-04-11T20:34:22.219Z,96922.78
2018-04-11T20:36:52.508Z,96912.53
2018-04-11T20:39:20.225Z,96911.98
2018-04-11T20:41:49.432Z,96910.30
2018-04-11T20:44:17.107Z,96903.12
2018-04-11T20:46:48.634Z,96900.81
2018-04-11T20:49:16.260Z,96892.46
2018-04-11T20:51:47.348Z,96886.95
2018-04-11T20:54:14.973Z,96888.44
2018-04-11T20:56:42.487Z,96882.33
2018-04-11T20:59:12.093Z,96874.20
2018-04-11T21:01:40.400Z,96876.15
2018-04-11T21:04:08.038Z,96863.05
2018-04-11T21:06:36.626Z,96862.67
2018-04-11T21:09:04.924Z,96861.83
2018-04-11T21:11:36.600Z,96853.48
2018-04-11T21:14:05.000Z,96854.02
2018-04-11T21:16:42.541Z,96847.88
2018-04-11T21:19:10.357Z,96846.21
2018-04-11T21:21:38.978Z,96848.25
2018-04-11T21:26:54.953Z,96835.64
2018-04-11T21:29:25.303Z,96837.45
2018-04-11T21:32:06.789Z,96832.66
2018-04-11T21:34:34.761Z,96834.66
2018-04-11T21:37:02.452Z,96825.91
2018-04-11T21:39:30.047Z,96822.39
2018-04-11T21:41:57.565Z,96825.70
2018-04-11T21:44:26.118Z,96823.83
2018-04-11T21:46:54.641Z,96818.15
2018-04-11T21:49:22.118Z,96815.22
2018-04-11T21:51:49.882Z,96815.69
2018-04-11T21:54:17.367Z,96812.17
2018-04-11T21:56:44.856Z,96814.70
2018-04-11T21:59:12.333Z,96813.27
2018-04-11T22:01:39.810Z,96816.66
2018-04-11T22:04:07.352Z,96819.28
2018-04-11T22:06:34.835Z,96813.55
2018-04-11T22:09:02.339Z,96815.17
2018-04-11T22:11:29.838Z,96813.23
2018-04-11T22:13:57.322Z,96808.11
2018-04-11T22:16:24.820Z,96797.81
2018-04-11T22:18:52.307Z,96800.05
2018-04-11T22:21:19.805Z,96793.34
2018-04-11T22:23:47.290Z,96782.45
2018-04-11T22:26:14.766Z,96782.16
2018-04-11T22:28:42.371Z,96777.03
2018-04-11T22:31:09.846Z,96776.14
2018-04-11T22:33:37.316Z,96770.75
2018-04-11T22:36:04.814Z,96763.41
2018-04-11T22:38:32.441Z,96766.63
2018-04-11T22:40:59.936Z,96760.66
2018-04-11T22:43:27.433Z,96754.07
2018-04-11T22:45:54.912Z,96751.09
2018-04-11T22:48:22.388Z,96745.77
2018-04-11T22:50:49.874Z,96744.05
2018-04-11T22:53:17.369Z,96739.61
2018-04-11T22:55:44.982Z,96734.34
2018-04-11T22:58:12.461Z,96734.54
2018-04-11T23:00:39.944Z,96719.23
2018-04-11T23:03:07.454Z,96725.53
2018-04-11T23:05:35.048Z,96719.83
2018-04-11T23:08:02.539Z,96714.88
2018-04-11T23:10:30.211Z,96715.59
2018-04-11T23:12:57.724Z,96714.99
2018-04-11T23:15:25.209Z,96711.94
2018-04-11T23:17:52.689Z,96706.56
2018-04-11T23:20:20.213Z,96704.12
2018-04-11T23:22:47.681Z,96700.23
2018-04-11T23:25:15.177Z,96703.63
2018-04-11T23:27:42.670Z,96698.93
2018-04-11T23:30:10.148Z,96700.48
2018-04-11T23:32:37.649Z,96695.39
2018-04-11T23:35:05.145Z,96688.75
2018-04-11T23:37:32.649Z,96686.97
2018-04-11T23:40:00.161Z,96683.50
2018-04-11T23:42:27.637Z,96686.37
2018-04-11T23:44:55.170Z,96680.73
2018-04-11T23:47:22.645Z,96670.83
2018-04-11T23:49:50.327Z,96673.45
2018-04-11T23:52:17.868Z,96666.94
2018-04-11T23:54:45.376Z,96662.39
2018-04-11T23:57:12.861Z,96663.89
2018-04-11T23:59:40.350Z,96662.23
